createdAt,value
2018-10-11T00:02:17.775Z,14.70
2018-10-11T00:04:45.009Z,14.70
2018-10-11T00:07:12.210Z,14.70
2018-10-11T00:09:39.405Z,14.60
2018-10-11T00:12:07.594Z,14.50
2018-10-11T00:14:34.794Z,14.50
2018-10-11T00:17:01.977Z,14.40
2018-10-11T00:19:29.177Z,14.40
2018-10-11T00:21:56.364Z,14.40
2018-10-11T00:24:23.594Z,14.40
2018-10-11T00:26:50.786Z,14.30
2018-10-11T00:29:17.977Z,14.30
2018-10-11T00:31:45.222Z,14.20
2018-10-11T00:34:12.404Z,14.20
2018-10-11T00:36:39.567Z,14.20
2018-10-11T00:39:07.332Z,14.20
2018-10-11T00:41:34.511Z,14.20
2018-10-11T00:44:01.716Z,14.20
2018-10-11T00:46:28.997Z,14.10
2018-10-11T00:48:56.192Z,14.10
2018-10-11T00:51:23.446Z,14.10
2018-10-11T00:53:50.679Z,14.00
2018-10-11T00:56:17.925Z,14.00
2018-10-11T00:58:45.113Z,14.00
2018-10-11T01:01:12.335Z,13.90
2018-10-11T01:03:39.891Z,14.00
2018-10-11T01:06:07.426Z,13.90
2018-10-11T01:08:34.606Z,13.90
2018-10-11T01:11:01.838Z,13.90
2018-10-11T01:13:29.025Z,13.90
2018-10-11T01:15:56.301Z,13.80
2018-10-11T01:18:23.486Z,13.80
2018-10-11T01:20:50.713Z,13.80
2018-10-11T01:23:18.194Z,13.70
2018-10-11T01:25:45.574Z,13.70
2018-10-11T01:28:13.041Z,13.70
2018-10-11T01:30:46.209Z,13.70
2018-10-11T01:33:13.425Z,13.70
2018-10-11T01:35:40.622Z,13.70
2018-10-11T01:38:07.846Z,13.70
2018-10-11T01:40:35.068Z,13.70
2018-10-11T01:43:04.569Z,13.60
2018-10-11T01:45:31.776Z,13.60
2018-10-11T01:47:58.972Z,13.60
2018-10-11T01:50:26.376Z,13.60
2018-10-11T01:52:54.244Z,13.50
2018-10-11T01:55:21.434Z,13.60
2018-10-11T01:57:48.634Z,13.50
2018-10-11T02:00:15.857Z,13.50
2018-10-11T02:02:43.057Z,13.40
2018-10-11T02:05:10.365Z,13.50
2018-10-11T02:07:37.556Z,13.50
2018-10-11T02:10:04.792Z,13.50
2018-10-11T02:12:31.981Z,13.50
2018-10-11T02:14:59.165Z,13.50
2018-10-11T02:17:26.394Z,13.40
2018-10-11T02:19:53.770Z,13.40
2018-10-11T02:22:20.969Z,13.40
2018-10-11T02:24:48.149Z,13.40
2018-10-11T02:27:15.375Z,13.40
2018-10-11T02:29:42.630Z,13.40
2018-10-11T02:32:09.857Z,13.40
2018-10-11T02:34:37.018Z,13.40
2018-10-11T02:37:04.237Z,13.40
2018-10-11T02:39:31.385Z,13.30
2018-10-11T02:41:58.605Z,13.30
2018-10-11T02:44:25.780Z,13.30
2018-10-11T02:46:52.938Z,13.30
2018-10-11T02:49:20.141Z,13.30
2018-10-11T02:51:47.338Z,13.30
2018-10-11T02:54:14.546Z,13.30
2018-10-11T02:56:41.826Z,13.20
2018-10-11T02:59:20.594Z,13.20
2018-10-11T03:01:47.850Z,13.10
2018-10-11T03:04:15.103Z,13.10
2018-10-11T03:06:42.311Z,13.20
2018-10-11T03:09:09.513Z,13.10
2018-10-11T03:11:36.992Z,13.10
2018-10-11T03:14:04.173Z,13.10
2018-10-11T03:16:31.363Z,13.10
2018-10-11T03:18:58.574Z,13.10
2018-10-11T03:21:25.748Z,13.10
2018-10-11T03:23:52.937Z,13.10
2018-10-11T03:26:20.127Z,13.10
2018-10-11T03:28:47.365Z,13.10
2018-10-11T03:31:14.610Z,13.10
2018-10-11T03:33:41.812Z,13.10
2018-10-11T03:36:08.993Z,13.10
2018-10-11T03:38:36.205Z,13.10
2018-10-11T03:41:03.538Z,13.10
2018-10-11T03:43:30.710Z,13.10
2018-10-11T03:45:57.989Z,13.00
2018-10-11T03:48:25.202Z,13.00
2018-10-11T03:50:52.441Z,13.00
2018-10-11T03:53:19.641Z,13.00
2018-10-11T03:55:46.809Z,12.90
2018-10-11T03:58:14.008Z,13.00
2018-10-11T04:00:41.220Z,12.90
2018-10-11T04:03:08.525Z,12.90
2018-10-11T04:05:35.726Z,12.80
2018-10-11T04:08:02.915Z,12.80
2018-10-11T04:10:30.142Z,12.80
2018-10-11T04:12:57.459Z,12.80
2018-10-11T04:15:24.725Z,12.80
2018-10-11T04:17:51.919Z,12.80
2018-10-11T04:20:19.137Z,12.80
2018-10-11T04:22:46.350Z,12.80
2018-10-11T04:25:13.518Z,12.80
2018-10-11T04:27:40.719Z,12.70
2018-10-11T04:30:07.961Z,12.70
2018-10-11T04:32:35.145Z,12.60
2018-10-11T04:35:02.351Z,12.50
2018-10-11T04:37:29.537Z,12.50
2018-10-11T04:39:56.733Z,12.50
2018-10-11T04:42:23.930Z,12.50
2018-10-11T04:44:51.142Z,12.50
2018-10-11T04:47:18.324Z,12.40
2018-10-11T04:49:45.481Z,12.40
2018-10-11T04:52:12.674Z,12.40
2018-10-11T04:54:39.844Z,12.40
2018-10-11T04:57:07.185Z,12.30
2018-10-11T04:59:34.372Z,12.30
2018-10-11T05:02:01.667Z,12.30
2018-10-11T05:04:28.894Z,12.20
2018-10-11T05:06:56.189Z,12.20
2018-10-11T05:09:23.397Z,12.20
2018-10-11T05:11:50.685Z,12.20
2018-10-11T05:14:17.945Z,12.10
2018-10-11T05:16:45.249Z,12.10
2018-10-11T05:19:12.454Z,12.10
2018-10-11T05:21:40.006Z,12.00
2018-10-11T05:24:07.295Z,12.00
2018-10-11T05:26:34.544Z,11.90
2018-10-11T05:29:01.849Z,11.80
2018-10-11T05:31:29.720Z,11.80
2018-10-11T05:33:56.957Z,11.70
2018-10-11T05:36:24.365Z,11.70
2018-10-11T05:38:51.572Z,11.60
2018-10-11T05:41:18.858Z,11.60
2018-10-11T05:43:46.117Z,11.60
2018-10-11T05:46:20.429Z,11.50
2018-10-11T05:48:47.647Z,11.50
2018-10-11T05:51:14.865Z,11.50
2018-10-11T05:53:42.115Z,11.50
2018-10-11T05:56:09.329Z,11.50
2018-10-11T05:58:36.582Z,11.50
2018-10-11T06:01:03.844Z,11.50
2018-10-11T06:03:31.071Z,11.50
2018-10-11T06:05:58.286Z,11.50
2018-10-11T06:08:25.539Z,11.50
2018-10-11T06:10:52.773Z,11.50
2018-10-11T06:13:20.021Z,11.60
2018-10-11T06:15:47.269Z,11.60
2018-10-11T06:18:14.468Z,11.60
2018-10-11T06:20:42.779Z,11.70
2018-10-11T06:23:10.077Z,11.70
2018-10-11T06:25:37.290Z,11.70
2018-10-11T06:28:05.146Z,11.80
2018-10-11T06:30:33.117Z,11.80
2018-10-11T06:33:00.330Z,11.90
2018-10-11T06:35:27.620Z,11.90
2018-10-11T06:37:54.869Z,12.00
2018-10-11T06:40:22.189Z,12.00
2018-10-11T06:42:49.461Z,12.00
2018-10-11T06:45:16.684Z,12.10
2018-10-11T06:47:47.781Z,12.10
2018-10-11T06:50:15.018Z,12.20
2018-10-11T06:52:42.237Z,12.30
2018-10-11T06:55:09.486Z,12.30
2018-10-11T06:57:36.705Z,12.40
2018-10-11T07:00:04.627Z,12.50
2018-10-11T07:02:31.824Z,12.60
2018-10-11T07:04:59.014Z,12.60
2018-10-11T07:07:26.242Z,12.70
2018-10-11T07:09:53.492Z,12.80
2018-10-11T07:12:20.669Z,12.80
2018-10-11T07:14:47.977Z,12.90
2018-10-11T07:17:15.445Z,13.00
2018-10-11T07:19:42.797Z,13.10
2018-10-11T07:22:09.994Z,13.20
2018-10-11T07:24:37.270Z,13.20
2018-10-11T07:27:04.664Z,13.30
2018-10-11T07:29:31.866Z,13.40
2018-10-11T07:31:59.045Z,13.40
2018-10-11T07:34:26.247Z,13.50
2018-10-11T07:36:53.442Z,13.50
2018-10-11T07:39:20.804Z,13.60
2018-10-11T07:41:48.029Z,13.70
2018-10-11T07:44:15.237Z,13.90
2018-10-11T07:46:42.408Z,13.90
2018-10-11T07:49:09.688Z,14.00
2018-10-11T07:51:37.198Z,14.20
2018-10-11T07:54:04.385Z,14.20
2018-10-11T07:56:32.733Z,14.30
2018-10-11T07:59:00.229Z,14.40
2018-10-11T08:01:28.092Z,14.50
2018-10-11T08:03:55.591Z,14.50
2018-10-11T08:06:22.785Z,14.60
2018-10-11T08:08:49.980Z,14.70
2018-10-11T08:11:17.192Z,14.80
2018-10-11T08:13:44.380Z,14.90
2018-10-11T08:16:11.753Z,15.00
2018-10-11T08:18:39.006Z,15.10
2018-10-11T08:21:06.149Z,15.30
2018-10-11T08:23:33.314Z,15.40
2018-10-11T08:26:00.849Z,15.60
2018-10-11T08:28:27.794Z,15.60
2018-10-11T08:30:54.969Z,15.70
2018-10-11T08:33:22.418Z,15.80
2018-10-11T08:35:49.614Z,16.00
2018-10-11T08:38:17.014Z,16.10
2018-10-11T08:42:08.709Z,16.20
2018-10-11T08:44:35.918Z,16.20
2018-10-11T08:47:03.170Z,16.30
2018-10-11T08:49:30.493Z,16.40
2018-10-11T08:51:57.700Z,16.50
2018-10-11T08:54:30.602Z,16.70
2018-10-11T08:56:57.845Z,16.80
2018-10-11T08:59:25.136Z,16.80
2018-10-11T09:01:52.234Z,16.80
2018-10-11T09:04:19.554Z,16.90
2018-10-11T09:06:46.772Z,17.00
2018-10-11T09:09:13.974Z,17.10
2018-10-11T09:11:41.182Z,17.20
2018-10-11T09:14:08.479Z,17.30
2018-10-11T09:16:35.689Z,17.40
2018-10-11T09:19:02.921Z,17.50
2018-10-11T09:21:30.331Z,17.50
2018-10-11T09:23:57.605Z,17.60
2018-10-11T09:26:24.796Z,17.70
2018-10-11T09:28:52.039Z,17.80
2018-10-11T09:31:19.231Z,18.00
2018-10-11T09:33:46.409Z,18.10
2018-10-11T09:36:13.670Z,18.10
2018-10-11T09:38:40.849Z,18.20
2018-10-11T09:41:08.121Z,18.40
2018-10-11T09:43:35.374Z,18.50
2018-10-11T09:46:02.565Z,18.60
2018-10-11T09:48:29.757Z,18.60
2018-10-11T09:50:57.036Z,18.70
2018-10-11T09:53:24.259Z,18.80
2018-10-11T09:55:51.423Z,18.80
2018-10-11T09:58:18.614Z,18.90
2018-10-11T10:00:51.567Z,19.00
2018-10-11T10:03:18.766Z,19.00
2018-10-11T10:05:46.091Z,19.10
2018-10-11T10:08:13.361Z,19.20
2018-10-11T10:10:40.577Z,19.20
2018-10-11T10:13:07.796Z,19.30
2018-10-11T10:15:35.079Z,19.40
2018-10-11T10:18:02.258Z,19.40
2018-10-11T10:20:29.438Z,19.60
2018-10-11T10:22:56.654Z,19.60
2018-10-11T10:25:23.941Z,19.70
2018-10-11T10:27:51.133Z,19.80
2018-10-11T10:30:24.075Z,19.90
2018-10-11T10:32:51.286Z,20.00
2018-10-11T10:35:18.460Z,20.10
2018-10-11T10:37:45.685Z,20.10
2018-10-11T10:40:12.916Z,20.20
2018-10-11T10:42:40.293Z,20.30
2018-10-11T10:45:07.514Z,20.40
2018-10-11T10:47:34.761Z,20.50
2018-10-11T10:50:01.986Z,20.60
2018-10-11T10:52:29.186Z,20.70
2018-10-11T10:54:56.516Z,20.70
2018-10-11T10:57:23.750Z,20.70
2018-10-11T10:59:50.990Z,20.70
2018-10-11T11:02:18.248Z,20.80
2018-10-11T11:04:45.528Z,20.90
2018-10-11T11:07:12.872Z,20.90
2018-10-11T11:09:40.107Z,21.10
2018-10-11T11:12:07.467Z,21.20
2018-10-11T11:14:34.672Z,21.20
2018-10-11T11:17:01.872Z,21.30
2018-10-11T11:19:29.082Z,21.40
2018-10-11T11:21:56.322Z,21.50
2018-10-11T11:24:23.549Z,21.60
2018-10-11T11:26:50.728Z,21.60
2018-10-11T11:29:18.022Z,21.60
2018-10-11T11:31:45.234Z,21.70
2018-10-11T11:34:13.247Z,21.70
2018-10-11T11:36:40.481Z,21.80
2018-10-11T11:39:08.261Z,21.90
2018-10-11T11:41:35.677Z,22.00
2018-10-11T11:44:03.082Z,22.10
2018-10-11T11:46:30.261Z,22.20
2018-10-11T11:48:57.605Z,22.20
2018-10-11T11:51:24.777Z,22.30
2018-10-11T11:53:51.969Z,22.40
2018-10-11T11:56:19.225Z,22.50
2018-10-11T11:58:46.457Z,22.50
2018-10-11T12:01:13.759Z,22.70
2018-10-11T12:03:41.069Z,22.80
2018-10-11T12:06:08.973Z,22.80
2018-10-11T12:08:36.765Z,22.90
2018-10-11T12:11:04.108Z,23.00
2018-10-11T12:13:31.284Z,23.20
2018-10-11T12:15:58.554Z,23.50
2018-10-11T12:18:25.845Z,24.40
2018-10-11T12:20:53.037Z,25.50
2018-10-11T12:23:20.257Z,27.20
2018-10-11T12:25:47.480Z,29.20
2018-10-11T12:28:14.803Z,30.20
2018-10-11T12:30:41.957Z,30.90
2018-10-11T12:33:09.141Z,31.40
2018-10-11T12:35:36.362Z,32.70
2018-10-11T12:38:03.604Z,34.10
2018-10-11T12:40:30.926Z,34.80
2018-10-11T12:42:58.259Z,35.10
2018-10-11T12:45:25.592Z,34.90
2018-10-11T12:47:52.800Z,35.00
2018-10-11T12:50:20.073Z,35.10
2018-10-11T12:52:47.276Z,34.60
2018-10-11T12:55:14.614Z,33.70
2018-10-11T12:57:41.842Z,34.30
2018-10-11T13:00:11.798Z,34.60
2018-10-11T13:02:39.070Z,34.90
2018-10-11T13:05:06.350Z,34.60
2018-10-11T13:07:33.537Z,34.80
2018-10-11T13:10:00.921Z,34.80
2018-10-11T13:12:28.177Z,34.90
2018-10-11T13:14:55.395Z,35.10
2018-10-11T13:17:22.568Z,35.70
2018-10-11T13:19:49.826Z,35.70
2018-10-11T13:22:17.024Z,35.80
2018-10-11T13:24:46.835Z,36.00
2018-10-11T13:27:11.490Z,36.30
2018-10-11T13:29:38.725Z,36.20
2018-10-11T13:32:05.933Z,36.70
2018-10-11T13:34:33.225Z,37.20
2018-10-11T13:37:00.434Z,37.30
2018-10-11T13:39:27.629Z,36.90
2018-10-11T13:41:54.877Z,36.50
2018-10-11T13:44:22.061Z,36.70
2018-10-11T13:46:49.404Z,36.90
2018-10-11T13:49:16.668Z,36.80
2018-10-11T13:51:43.861Z,36.90
2018-10-11T13:54:16.597Z,36.60
2018-10-11T13:56:43.962Z,36.80
2018-10-11T13:59:14.266Z,36.60
2018-10-11T14:01:38.621Z,37.20
2018-10-11T14:04:06.435Z,37.20
2018-10-11T14:06:33.630Z,36.70
2018-10-11T14:09:00.834Z,35.50
2018-10-11T14:11:28.174Z,36.00
2018-10-11T14:13:55.365Z,36.00
2018-10-11T14:16:22.541Z,36.20
2018-10-11T14:18:49.757Z,36.40
2018-10-11T14:21:16.938Z,36.80
2018-10-11T14:23:44.461Z,36.50
2018-10-11T14:26:11.580Z,36.70
2018-10-11T14:28:38.778Z,36.80
2018-10-11T14:31:06.209Z,36.70
2018-10-11T14:33:33.398Z,37.10
2018-10-11T14:36:00.649Z,37.10
2018-10-11T14:38:29.299Z,36.70
2018-10-11T14:40:57.007Z,36.50
2018-10-11T14:43:24.358Z,36.40
2018-10-11T14:45:51.547Z,36.20
2018-10-11T14:48:18.739Z,36.30
2018-10-11T14:50:45.962Z,36.30
2018-10-11T14:53:13.250Z,36.30
2018-10-11T14:55:40.481Z,36.50
2018-10-11T14:58:07.685Z,36.50
2018-10-11T15:00:34.885Z,36.30
2018-10-11T15:03:02.189Z,36.30
2018-10-11T15:05:29.372Z,36.20
2018-10-11T15:07:56.925Z,36.20
2018-10-11T15:10:24.219Z,35.70
2018-10-11T15:12:51.450Z,35.40
2018-10-11T15:15:18.646Z,35.30
2018-10-11T15:17:45.875Z,35.00
2018-10-11T15:20:13.195Z,34.60
2018-10-11T15:22:40.411Z,34.10
2018-10-11T15:25:07.757Z,33.70
2018-10-11T15:27:35.104Z,33.60
2018-10-11T15:30:02.383Z,33.40
2018-10-11T15:32:30.664Z,33.30
2018-10-11T15:34:58.143Z,33.20
2018-10-11T15:37:25.359Z,33.30
2018-10-11T15:39:52.588Z,33.10
2018-10-11T15:42:19.994Z,33.20
2018-10-11T15:44:47.221Z,32.40
2018-10-11T15:47:14.499Z,31.90
2018-10-11T15:49:41.802Z,31.30
2018-10-11T15:52:09.109Z,30.60
2018-10-11T15:54:38.398Z,29.90
2018-10-11T15:57:05.625Z,29.30
2018-10-11T15:59:32.924Z,28.60
2018-10-11T16:02:00.216Z,28.10
2018-10-11T16:04:27.514Z,27.60
2018-10-11T16:06:54.733Z,27.20
2018-10-11T16:09:22.131Z,26.70
2018-10-11T16:11:49.323Z,26.30
2018-10-11T16:14:16.525Z,25.90
2018-10-11T16:16:43.766Z,25.40
2018-10-11T16:19:11.997Z,25.00
2018-10-11T16:21:39.386Z,24.60
2018-10-11T16:24:06.638Z,24.20
2018-10-11T16:26:33.869Z,23.80
2018-10-11T16:29:01.094Z,23.50
2018-10-11T16:31:28.333Z,23.30
2018-10-11T16:33:55.565Z,23.10
2018-10-11T16:36:22.930Z,22.90
2018-10-11T16:38:50.301Z,22.70
2018-10-11T16:41:17.501Z,22.50
2018-10-11T16:43:44.977Z,22.30
2018-10-11T16:46:12.192Z,22.20
2018-10-11T16:48:39.478Z,22.00
2018-10-11T16:51:06.821Z,21.70
2018-10-11T16:53:34.153Z,21.40
2018-10-11T16:56:01.376Z,21.20
2018-10-11T16:58:28.736Z,20.90
2018-10-11T17:00:55.969Z,20.80
2018-10-11T17:03:23.526Z,20.60
2018-10-11T17:05:50.927Z,20.50
2018-10-11T17:08:18.221Z,20.40
2018-10-11T17:10:45.458Z,20.30
2018-10-11T17:13:12.951Z,20.20
2018-10-11T17:15:40.182Z,20.10
2018-10-11T17:18:07.385Z,19.90
2018-10-11T17:20:34.612Z,19.80
2018-10-11T17:23:01.802Z,19.70
2018-10-11T17:25:29.128Z,19.60
2018-10-11T17:27:56.413Z,19.50
2018-10-11T17:30:23.696Z,19.50
2018-10-11T17:32:51.524Z,19.40
2018-10-11T17:35:18.829Z,19.30
2018-10-11T17:37:46.417Z,19.20
2018-10-11T17:40:13.983Z,19.10
2018-10-11T17:42:41.697Z,19.10
2018-10-11T17:45:09.384Z,19.00
2018-10-11T17:47:37.250Z,18.90
2018-10-11T17:50:04.672Z,18.80
2018-10-11T17:52:31.934Z,18.70
2018-10-11T17:54:59.260Z,18.60
2018-10-11T17:57:26.928Z,18.50
2018-10-11T17:59:54.304Z,18.40
2018-10-11T18:02:22.122Z,18.30
2018-10-11T18:04:50.356Z,18.20
2018-10-11T18:07:17.562Z,18.10
2018-10-11T18:09:44.914Z,17.90
2018-10-11T18:12:12.102Z,17.70
2018-10-11T18:14:39.457Z,17.60
2018-10-11T18:17:06.941Z,17.40
2018-10-11T18:19:34.285Z,17.20
2018-10-11T18:22:01.578Z,17.10
2018-10-11T18:24:28.830Z,16.90
2018-10-11T18:26:56.044Z,16.80
2018-10-11T18:29:23.394Z,16.80
2018-10-11T18:31:50.600Z,16.70
2018-10-11T18:34:17.785Z,16.60
2018-10-11T18:36:45.113Z,16.60
2018-10-11T18:39:13.881Z,16.60
2018-10-11T18:41:41.489Z,16.50
2018-10-11T18:44:09.080Z,16.40
2018-10-11T18:46:36.309Z,16.40
2018-10-11T18:49:03.866Z,16.30
2018-10-11T18:51:31.046Z,16.30
2018-10-11T18:53:58.253Z,16.20
2018-10-11T18:56:25.502Z,16.20
2018-10-11T18:58:52.741Z,16.00
2018-10-11T19:01:19.942Z,15.90
2018-10-11T19:03:47.262Z,15.90
2018-10-11T19:06:14.497Z,15.80
2018-10-11T19:08:41.670Z,15.70
2018-10-11T19:11:08.894Z,15.70
2018-10-11T19:13:36.107Z,15.60
2018-10-11T19:16:03.585Z,15.60
2018-10-11T19:18:30.786Z,15.60
2018-10-11T19:20:58.016Z,15.50
2018-10-11T19:23:25.212Z,15.60
2018-10-11T19:25:52.414Z,15.60
2018-10-11T19:28:20.010Z,15.50
2018-10-11T19:30:47.234Z,15.60
2018-10-11T19:33:14.612Z,15.60
2018-10-11T19:35:41.802Z,15.60
2018-10-11T19:38:09.081Z,15.60
2018-10-11T19:40:36.261Z,15.60
2018-10-11T19:43:03.583Z,15.60
2018-10-11T19:45:30.864Z,15.60
2018-10-11T19:47:58.445Z,15.50
2018-10-11T19:50:25.638Z,15.50
2018-10-11T19:52:52.965Z,15.40
2018-10-11T19:55:20.150Z,15.40
2018-10-11T19:57:47.361Z,15.30
2018-10-11T20:00:14.541Z,15.30
2018-10-11T20:02:41.882Z,15.20
2018-10-11T20:05:09.149Z,15.20
2018-10-11T20:07:36.390Z,15.10
2018-10-11T20:10:03.820Z,15.00
2018-10-11T20:12:31.046Z,15.00
2018-10-11T20:14:58.314Z,15.00
2018-10-11T20:17:25.636Z,14.90
2018-10-11T20:19:52.726Z,14.90
2018-10-11T20:22:19.970Z,14.90
2018-10-11T20:24:47.168Z,14.90
2018-10-11T20:27:14.371Z,14.80
2018-10-11T20:29:41.669Z,14.80
2018-10-11T20:32:09.968Z,14.70
2018-10-11T20:34:37.140Z,14.70
2018-10-11T20:37:04.373Z,14.60
2018-10-11T20:39:31.574Z,14.60
2018-10-11T20:41:58.947Z,14.60
2018-10-11T20:44:26.285Z,14.50
2018-10-11T20:46:53.553Z,14.50
2018-10-11T20:49:20.814Z,14.50
2018-10-11T20:51:48.104Z,14.40
2018-10-11T20:54:15.394Z,14.30
2018-10-11T20:56:42.642Z,14.30
2018-10-11T20:59:09.853Z,14.20
2018-10-11T21:01:37.079Z,14.10
2018-10-11T21:04:04.274Z,14.10
2018-10-11T21:06:31.556Z,14.00
2018-10-11T21:08:58.922Z,14.00
2018-10-11T21:11:26.129Z,14.00
2018-10-11T21:13:53.303Z,14.00
2018-10-11T21:16:20.517Z,13.90
2018-10-11T21:18:47.893Z,13.90
2018-10-11T21:21:15.177Z,13.90
2018-10-11T21:23:42.435Z,13.80
2018-10-11T21:26:09.674Z,13.80
2018-10-11T21:28:36.929Z,13.80
2018-10-11T21:31:04.370Z,13.80
2018-10-11T21:33:32.214Z,13.80
2018-10-11T21:35:59.408Z,13.70
2018-10-11T21:38:26.593Z,13.60
2018-10-11T21:40:53.907Z,13.60
2018-10-11T21:43:22.089Z,13.60
2018-10-11T21:45:49.282Z,13.60
2018-10-11T21:48:16.498Z,13.60
2018-10-11T21:50:43.677Z,13.60
2018-10-11T21:53:10.990Z,13.60
2018-10-11T21:55:38.285Z,13.60
2018-10-11T21:58:05.488Z,13.60
2018-10-11T22:00:38.349Z,13.70
2018-10-11T22:03:05.535Z,13.70
2018-10-11T22:05:32.741Z,13.70
2018-10-11T22:07:59.925Z,13.70
2018-10-11T22:10:27.205Z,13.70
2018-10-11T22:12:54.454Z,13.70
2018-10-11T22:15:21.650Z,13.70
2018-10-11T22:17:48.841Z,13.70
2018-10-11T22:20:16.100Z,13.70
2018-10-11T22:22:43.373Z,13.80
2018-10-11T22:25:10.556Z,13.70
2018-10-11T22:27:37.742Z,13.70
2018-10-11T22:30:05.073Z,13.70
2018-10-11T22:32:32.268Z,13.80
2018-10-11T22:34:59.450Z,13.70
2018-10-11T22:37:26.721Z,13.70
2018-10-11T22:39:53.899Z,13.70
2018-10-11T22:42:21.106Z,13.70
2018-10-11T22:44:48.373Z,13.70
2018-10-11T22:47:15.608Z,13.70
2018-10-11T22:49:42.804Z,13.60
2018-10-11T22:52:10.126Z,13.60
2018-10-11T22:54:37.328Z,13.60
2018-10-11T22:57:04.585Z,13.60
2018-10-11T22:59:31.998Z,13.60
2018-10-11T23:01:59.214Z,13.60
2018-10-11T23:04:26.434Z,13.50
2018-10-11T23:06:53.769Z,13.50
2018-10-11T23:09:20.976Z,13.40
2018-10-11T23:11:48.212Z,13.30
2018-10-11T23:14:15.502Z,13.30
2018-10-11T23:16:42.736Z,13.30
2018-10-11T23:19:10.015Z,13.30
2018-10-11T23:21:37.450Z,13.30
2018-10-11T23:24:05.121Z,13.10
2018-10-11T23:26:32.847Z,13.00
2018-10-11T23:29:00.153Z,12.90
2018-10-11T23:31:27.366Z,12.90
2018-10-11T23:33:54.574Z,13.00
2018-10-11T23:36:21.891Z,13.10
2018-10-11T23:38:49.130Z,13.10
2018-10-11T23:41:16.927Z,13.20
2018-10-11T23:43:44.163Z,13.20
2018-10-11T23:46:11.466Z,13.10
2018-10-11T23:48:38.896Z,13.20
2018-10-11T23:51:06.087Z,13.20
2018-10-11T23:53:33.893Z,13.20
2018-10-11T23:56:01.240Z,13.20
2018-10-11T23:58:28.524Z,13.20
